createdAt,value
2019-04-27T00:00:14.595Z,59.06
2019-04-27T00:02:49.629Z,59.91
2019-04-27T00:05:32.283Z,59.22
2019-04-27T00:08:18.938Z,59.87
2019-04-27T00:11:08.922Z,59.25
2019-04-27T00:13:41.704Z,59.67
2019-04-27T00:16:15.516Z,59.90
2019-04-27T00:19:01.086Z,59.93
2019-04-27T00:21:43.803Z,59.77
2019-04-27T00:24:17.124Z,59.67
2019-04-27T00:26:48.849Z,59.75
2019-04-27T00:29:20.917Z,59.95
2019-04-27T00:31:53.367Z,59.41
2019-04-27T00:34:27.032Z,59.37
2019-04-27T00:37:16.775Z,59.63
2019-04-27T00:39:53.325Z,59.58
2019-04-27T00:42:25.193Z,60.45
2019-04-27T00:44:57.060Z,62.23
2019-04-27T00:47:28.920Z,61.64
2019-04-27T00:50:00.892Z,61.75
2019-04-27T00:52:34.895Z,62.20
2019-04-27T00:55:08.217Z,61.49
2019-04-27T00:57:59.096Z,61.50
2019-04-27T01:00:44.872Z,62.62
2019-04-27T01:03:20.720Z,62.34
2019-04-27T01:05:53.143Z,62.33
2019-04-27T01:08:24.974Z,62.07
2019-04-27T01:10:56.830Z,61.84
2019-04-27T01:13:29.471Z,61.87
2019-04-27T01:16:01.051Z,61.96
2019-04-27T01:18:32.936Z,62.39
2019-04-27T01:21:04.685Z,62.22
2019-04-27T01:23:38.174Z,62.83
2019-04-27T01:26:23.862Z,62.36
2019-04-27T01:29:03.140Z,62.34
2019-04-27T01:31:34.888Z,63.68
2019-04-27T01:34:06.710Z,64.00
2019-04-27T01:36:39.234Z,63.63
2019-04-27T01:39:12.486Z,62.89
2019-04-27T01:41:44.347Z,62.46
2019-04-27T01:44:16.010Z,63.57
2019-04-27T01:46:48.709Z,62.96
2019-04-27T01:49:20.447Z,62.58
2019-04-27T01:51:52.208Z,62.99
2019-04-27T01:54:26.020Z,63.44
2019-04-27T01:57:00.686Z,62.97
2019-04-27T01:59:31.388Z,63.73
2019-04-27T02:02:04.779Z,64.42
2019-04-27T02:04:40.851Z,63.40
2019-04-27T02:07:12.717Z,63.57
2019-04-27T02:09:44.566Z,65.04
2019-04-27T02:12:16.428Z,66.46
2019-04-27T02:14:49.077Z,66.50
2019-04-27T02:17:21.283Z,65.23
2019-04-27T02:19:52.931Z,65.94
2019-04-27T02:22:24.693Z,64.82
2019-04-27T02:24:56.451Z,64.96
2019-04-27T02:27:29.953Z,64.76
2019-04-27T02:30:06.162Z,64.75
2019-04-27T02:32:39.969Z,64.60
2019-04-27T02:35:12.811Z,65.33
2019-04-27T02:37:44.462Z,65.88
2019-04-27T02:40:42.354Z,65.27
2019-04-27T02:43:14.896Z,65.51
2019-04-27T02:45:46.969Z,65.10
2019-04-27T02:48:20.107Z,65.90
2019-04-27T02:50:53.434Z,65.20
2019-04-27T02:53:43.472Z,64.23
2019-04-27T02:57:03.182Z,63.63
2019-04-27T02:59:34.942Z,63.95
2019-04-27T03:02:19.669Z,64.27
2019-04-27T03:04:51.164Z,64.46
2019-04-27T03:07:23.117Z,63.20
2019-04-27T03:09:55.184Z,62.54
2019-04-27T03:12:29.563Z,62.98
2019-04-27T03:15:20.490Z,62.28
2019-04-27T03:17:53.592Z,62.92
2019-04-27T03:20:36.202Z,62.44
2019-04-27T03:23:09.774Z,62.74
2019-04-27T03:26:01.569Z,62.28
2019-04-27T03:28:33.697Z,62.02
2019-04-27T03:31:05.500Z,60.89
2019-04-27T03:33:37.267Z,60.30
2019-04-27T03:36:12.859Z,60.50
2019-04-27T03:38:42.567Z,60.51
2019-04-27T03:41:14.226Z,59.61
2019-04-27T03:43:45.887Z,58.88
2019-04-27T03:46:20.203Z,57.91
2019-04-27T03:48:51.045Z,58.31
2019-04-27T03:51:30.381Z,58.23
2019-04-27T03:54:10.699Z,58.11
2019-04-27T03:56:44.316Z,57.45
2019-04-27T03:59:20.290Z,57.21
2019-04-27T04:01:52.428Z,56.64
2019-04-27T04:04:24.122Z,56.42
2019-04-27T04:06:59.627Z,55.88
2019-04-27T04:09:43.515Z,56.44
2019-04-27T04:12:16.901Z,56.58
2019-04-27T04:14:49.406Z,55.92
2019-04-27T04:17:22.970Z,56.01
2019-04-27T04:20:00.316Z,56.01
2019-04-27T04:22:30.204Z,55.17
2019-04-27T04:25:03.173Z,53.61
2019-04-27T04:27:35.143Z,53.07
2019-04-27T04:30:11.798Z,53.86
2019-04-27T04:32:41.005Z,52.59
2019-04-27T04:35:21.606Z,51.47
2019-04-27T04:37:53.608Z,49.77
2019-04-27T04:40:30.702Z,48.57
2019-04-27T04:43:04.361Z,47.67
2019-04-27T04:45:50.371Z,46.07
2019-04-27T04:48:22.199Z,45.95
2019-04-27T04:50:54.247Z,45.63
2019-04-27T04:53:26.093Z,44.67
2019-04-27T04:56:00.119Z,40.98
2019-04-27T04:58:31.666Z,39.53
2019-04-27T05:01:03.216Z,34.48
2019-04-27T05:03:34.964Z,35.14
2019-04-27T05:06:06.679Z,32.40
2019-04-27T05:08:39.342Z,30.20
2019-04-27T05:11:10.985Z,28.73
2019-04-27T05:13:42.733Z,29.02
2019-04-27T05:16:14.494Z,27.67
2019-04-27T05:18:46.257Z,26.00
2019-04-27T05:21:19.552Z,25.71
2019-04-27T05:23:51.307Z,26.58
2019-04-27T05:26:23.274Z,25.67
2019-04-27T05:28:54.948Z,23.57
2019-04-27T05:31:26.903Z,23.67
2019-04-27T05:33:59.342Z,23.60
2019-04-27T05:36:31.133Z,24.29
2019-04-27T05:39:02.738Z,24.89
2019-04-27T05:41:37.646Z,22.88
2019-04-27T05:44:11.197Z,22.45
2019-04-27T05:47:05.429Z,21.34
2019-04-27T05:49:41.078Z,23.47
2019-04-27T05:55:11.688Z,23.85
2019-04-27T05:57:43.236Z,25.20
2019-04-27T06:00:19.180Z,24.77
2019-04-27T06:02:50.956Z,24.96
2019-04-27T06:05:23.171Z,22.33
2019-04-27T06:07:54.836Z,22.40
2019-04-27T06:10:26.566Z,22.96
2019-04-27T06:12:59.820Z,23.53
2019-04-27T06:15:31.517Z,22.00
2019-04-27T06:18:03.363Z,20.95
2019-04-27T06:20:35.128Z,21.56
2019-04-27T06:23:06.886Z,20.76
2019-04-27T06:25:39.452Z,22.49
2019-04-27T06:28:11.053Z,22.29
2019-04-27T06:30:42.873Z,24.31
2019-04-27T06:33:27.229Z,28.58
2019-04-27T06:35:49.559Z,30.34
2019-04-27T06:38:21.279Z,32.44
2019-04-27T06:40:53.086Z,30.87
2019-04-27T06:43:24.986Z,30.79
2019-04-27T06:45:58.610Z,30.71
2019-04-27T06:48:31.433Z,31.03
2019-04-27T06:51:05.672Z,32.78
2019-04-27T06:53:36.796Z,30.66
2019-04-27T06:58:40.903Z,30.25
2019-04-27T07:01:12.696Z,31.11
2019-04-27T07:03:44.555Z,30.64
2019-04-27T07:06:16.025Z,30.01
2019-04-27T07:08:49.698Z,30.42
2019-04-27T07:11:20.963Z,28.95
2019-04-27T07:13:52.725Z,29.76
2019-04-27T07:16:24.315Z,31.33
2019-04-27T07:18:55.834Z,30.56
2019-04-27T07:21:28.667Z,29.72
2019-04-27T07:24:00.384Z,29.01
2019-04-27T07:26:32.239Z,30.47
2019-04-27T07:29:03.816Z,29.92
2019-04-27T07:31:35.872Z,29.40
2019-04-27T07:34:09.311Z,27.77
2019-04-27T07:36:42.146Z,28.91
2019-04-27T07:39:14.234Z,27.01
2019-04-27T07:41:45.974Z,31.85
2019-04-27T07:44:31.329Z,28.99
2019-04-27T07:47:16.824Z,27.09
2019-04-27T07:49:49.627Z,26.54
2019-04-27T07:52:21.772Z,27.15
2019-04-27T07:54:54.269Z,24.96
2019-04-27T07:57:25.826Z,25.22
2019-04-27T08:03:05.042Z,23.83
2019-04-27T08:06:16.437Z,25.22
2019-04-27T08:08:49.217Z,23.46
2019-04-27T08:11:20.954Z,28.42
2019-04-27T08:13:52.804Z,24.79
2019-04-27T08:16:32.267Z,26.68
2019-04-27T08:19:04.104Z,24.24
